sensor_id;sensor_type;location;lat;lon;timestamp;pressure;altitude;pressure_sealevel;temperature;humidity
76378;BME280;65200;49.500;8.654;2023-03-01T00:01:07;101534.16;;;-1.97;73.54
76378;BME280;65200;49.500;8.654;2023-03-01T00:03:35;101542.50;;;-1.89;73.69
76378;BME280;65200;49.500;8.654;2023-03-01T00:06:02;101531.47;;;-1.95;73.78
76378;BME280;65200;49.500;8.654;2023-03-01T00:08:29;101530.97;;;-1.86;73.91
76378;BME280;65200;49.500;8.654;2023-03-01T00:11:00;101521.81;;;-1.79;73.88
76378;BME280;65200;49.500;8.654;2023-03-01T00:13:27;101528.06;;;-1.97;74.44
76378;BME280;65200;49.500;8.654;2023-03-01T00:15:53;101527.84;;;-2.10;75.19
76378;BME280;65200;49.500;8.654;2023-03-01T00:18:19;101530.94;;;-2.02;74.67
76378;BME280;65200;49.500;8.654;2023-03-01T00:20:50;101520.28;;;-1.83;73.93
76378;BME280;65200;49.500;8.654;2023-03-01T00:23:17;101528.75;;;-1.47;72.80
76378;BME280;65200;49.500;8.654;2023-03-01T00:25:43;101520.00;;;-1.16;71.81
76378;BME280;65200;49.500;8.654;2023-03-01T00:28:10;101509.69;;;-1.05;70.80
76378;BME280;65200;49.500;8.654;2023-03-01T00:30:36;101507.06;;;-0.76;70.53
76378;BME280;65200;49.500;8.654;2023-03-01T00:33:03;101504.78;;;-0.52;69.44
76378;BME280;65200;49.500;8.654;2023-03-01T00:35:31;101505.53;;;-0.36;67.86
76378;BME280;65200;49.500;8.654;2023-03-01T00:37:59;101513.53;;;-0.38;68.62
76378;BME280;65200;49.500;8.654;2023-03-01T00:40:27;101513.88;;;-0.44;68.48
76378;BME280;65200;49.500;8.654;2023-03-01T00:42:53;101513.53;;;-0.38;68.25
76378;BME280;65200;49.500;8.654;2023-03-01T00:45:20;101515.41;;;-0.40;68.36
76378;BME280;65200;49.500;8.654;2023-03-01T00:47:48;101510.03;;;-0.24;67.33
76378;BME280;65200;49.500;8.654;2023-03-01T00:50:15;101517.09;;;-0.11;66.71
76378;BME280;65200;49.500;8.654;2023-03-01T00:52:41;101519.06;;;-0.28;68.10
76378;BME280;65200;49.500;8.654;2023-03-01T00:55:10;101510.59;;;-0.33;67.71
76378;BME280;65200;49.500;8.654;2023-03-01T00:57:37;101516.50;;;-0.44;68.12
76378;BME280;65200;49.500;8.654;2023-03-01T01:00:04;101511.47;;;-0.33;67.72
76378;BME280;65200;49.500;8.654;2023-03-01T01:02:32;101504.47;;;-0.34;68.74
76378;BME280;65200;49.500;8.654;2023-03-01T01:04:58;101496.97;;;-0.40;68.02
76378;BME280;65200;49.500;8.654;2023-03-01T01:07:25;101501.66;;;-0.59;68.89
76378;BME280;65200;49.500;8.654;2023-03-01T01:09:51;101498.34;;;-0.62;69.15
76378;BME280;65200;49.500;8.654;2023-03-01T01:12:19;101486.97;;;-0.63;68.96
76378;BME280;65200;49.500;8.654;2023-03-01T01:14:45;101494.47;;;-0.71;70.12
76378;BME280;65200;49.500;8.654;2023-03-01T01:17:12;101499.94;;;-0.74;69.41
76378;BME280;65200;49.500;8.654;2023-03-01T01:19:38;101492.84;;;-0.87;70.79
76378;BME280;65200;49.500;8.654;2023-03-01T01:22:05;101495.75;;;-0.92;71.02
76378;BME280;65200;49.500;8.654;2023-03-01T01:24:31;101482.91;;;-1.12;71.82
76378;BME280;65200;49.500;8.654;2023-03-01T01:26:58;101481.81;;;-1.23;72.01
76378;BME280;65200;49.500;8.654;2023-03-01T01:29:25;101471.84;;;-1.03;71.24
76378;BME280;65200;49.500;8.654;2023-03-01T01:31:52;101476.56;;;-0.94;70.34
76378;BME280;65200;49.500;8.654;2023-03-01T01:34:20;101466.69;;;-1.04;71.73
76378;BME280;65200;49.500;8.654;2023-03-01T01:36:47;101459.31;;;-1.13;71.73
76378;BME280;65200;49.500;8.654;2023-03-01T01:39:14;101453.84;;;-0.95;70.14
76378;BME280;65200;49.500;8.654;2023-03-01T01:41:41;101456.19;;;-0.90;70.48
76378;BME280;65200;49.500;8.654;2023-03-01T01:44:13;101438.91;;;-0.66;68.70
76378;BME280;65200;49.500;8.654;2023-03-01T01:46:43;101425.47;;;-0.34;67.29
76378;BME280;65200;49.500;8.654;2023-03-01T01:49:18;101429.13;;;-0.22;67.70
76378;BME280;65200;49.500;8.654;2023-03-01T01:51:48;101419.13;;;-0.03;66.24
76378;BME280;65200;49.500;8.654;2023-03-01T01:54:20;101429.19;;;0.05;66.57
76378;BME280;65200;49.500;8.654;2023-03-01T01:56:51;101429.16;;;0.19;65.43
76378;BME280;65200;49.500;8.654;2023-03-01T01:59:19;101430.91;;;0.32;65.02
76378;BME280;65200;49.500;8.654;2023-03-01T02:01:51;101427.41;;;0.32;64.93
76378;BME280;65200;49.500;8.654;2023-03-01T02:04:17;101429.19;;;0.31;65.10
76378;BME280;65200;49.500;8.654;2023-03-01T02:06:48;101427.72;;;0.27;65.54
76378;BME280;65200;49.500;8.654;2023-03-01T02:09:16;101426.97;;;0.25;64.74
76378;BME280;65200;49.500;8.654;2023-03-01T02:11:44;101422.91;;;0.34;65.41
76378;BME280;65200;49.500;8.654;2023-03-01T02:14:11;101406.22;;;0.33;64.62
76378;BME280;65200;49.500;8.654;2023-03-01T02:16:37;101416.78;;;0.33;64.92
76378;BME280;65200;49.500;8.654;2023-03-01T02:19:06;101414.25;;;0.32;64.52
76378;BME280;65200;49.500;8.654;2023-03-01T02:21:40;101402.59;;;0.22;65.22
76378;BME280;65200;49.500;8.654;2023-03-01T02:24:10;101411.91;;;0.27;64.63
76378;BME280;65200;49.500;8.654;2023-03-01T02:26:47;101405.03;;;0.25;65.47
76378;BME280;65200;49.500;8.654;2023-03-01T02:29:16;101403.25;;;0.25;65.41
76378;BME280;65200;49.500;8.654;2023-03-01T02:31:42;101393.44;;;0.27;65.06
76378;BME280;65200;49.500;8.654;2023-03-01T02:34:12;101393.34;;;0.29;64.48
76378;BME280;65200;49.500;8.654;2023-03-01T02:36:41;101387.88;;;0.32;64.66
76378;BME280;65200;49.500;8.654;2023-03-01T02:39:13;101400.97;;;0.33;64.68
76378;BME280;65200;49.500;8.654;2023-03-01T02:41:45;101393.91;;;0.34;64.53
76378;BME280;65200;49.500;8.654;2023-03-01T02:44:13;101392.50;;;0.28;64.30
76378;BME280;65200;49.500;8.654;2023-03-01T02:46:46;101384.03;;;0.23;64.78
76378;BME280;65200;49.500;8.654;2023-03-01T02:49:19;101386.47;;;0.26;64.71
76378;BME280;65200;49.500;8.654;2023-03-01T02:51:54;101379.00;;;0.33;64.65
76378;BME280;65200;49.500;8.654;2023-03-01T02:54:28;101383.22;;;0.23;65.35
76378;BME280;65200;49.500;8.654;2023-03-01T02:56:57;101374.34;;;0.24;65.12
76378;BME280;65200;49.500;8.654;2023-03-01T02:59:27;101373.50;;;0.23;65.46
76378;BME280;65200;49.500;8.654;2023-03-01T03:01:56;101370.38;;;0.31;64.42
76378;BME280;65200;49.500;8.654;2023-03-01T03:04:23;101377.53;;;0.29;64.19
76378;BME280;65200;49.500;8.654;2023-03-01T03:06:50;101365.38;;;0.26;64.96
76378;BME280;65200;49.500;8.654;2023-03-01T03:09:17;101357.56;;;0.25;64.77
76378;BME280;65200;49.500;8.654;2023-03-01T03:11:44;101353.91;;;0.27;65.14
76378;BME280;65200;49.500;8.654;2023-03-01T03:14:12;101359.19;;;0.27;64.73
76378;BME280;65200;49.500;8.654;2023-03-01T03:16:40;101350.00;;;0.33;64.01
76378;BME280;65200;49.500;8.654;2023-03-01T03:19:08;101360.03;;;0.28;64.83
76378;BME280;65200;49.500;8.654;2023-03-01T03:21:35;101347.47;;;0.31;64.24
76378;BME280;65200;49.500;8.654;2023-03-01T03:24:02;101350.13;;;0.31;64.02
76378;BME280;65200;49.500;8.654;2023-03-01T03:26:29;101339.66;;;0.30;64.13
76378;BME280;65200;49.500;8.654;2023-03-01T03:28:56;101337.47;;;0.36;63.92
76378;BME280;65200;49.500;8.654;2023-03-01T03:31:23;101348.88;;;0.37;64.07
76378;BME280;65200;49.500;8.654;2023-03-01T03:33:49;101332.81;;;0.27;64.11
76378;BME280;65200;49.500;8.654;2023-03-01T03:36:18;101337.25;;;0.27;64.81
76378;BME280;65200;49.500;8.654;2023-03-01T03:38:46;101338.41;;;0.23;64.94
76378;BME280;65200;49.500;8.654;2023-03-01T03:41:14;101339.53;;;0.19;65.26
76378;BME280;65200;49.500;8.654;2023-03-01T03:43:41;101333.28;;;0.07;66.23
76378;BME280;65200;49.500;8.654;2023-03-01T03:46:09;101333.81;;;0.12;66.02
76378;BME280;65200;49.500;8.654;2023-03-01T03:48:37;101337.63;;;0.08;65.58
76378;BME280;65200;49.500;8.654;2023-03-01T03:51:05;101344.56;;;0.09;65.44
76378;BME280;65200;49.500;8.654;2023-03-01T03:53:33;101343.06;;;0.05;65.66
76378;BME280;65200;49.500;8.654;2023-03-01T03:56:00;101337.91;;;0.03;65.69
76378;BME280;65200;49.500;8.654;2023-03-01T03:58:26;101331.81;;;0.03;66.18
76378;BME280;65200;49.500;8.654;2023-03-01T04:00:54;101328.31;;;0.03;66.21
76378;BME280;65200;49.500;8.654;2023-03-01T04:03:22;101326.44;;;0.05;65.81
76378;BME280;65200;49.500;8.654;2023-03-01T04:05:50;101331.16;;;-0.01;65.74
76378;BME280;65200;49.500;8.654;2023-03-01T04:08:17;101323.81;;;-0.10;66.30
76378;BME280;65200;49.500;8.654;2023-03-01T04:10:48;101318.91;;;-0.28;67.59
76378;BME280;65200;49.500;8.654;2023-03-01T04:13:17;101324.94;;;-0.40;67.68
76378;BME280;65200;49.500;8.654;2023-03-01T04:15:45;101326.66;;;-0.53;68.54
76378;BME280;65200;49.500;8.654;2023-03-01T04:18:13;101332.63;;;-0.64;68.98
76378;BME280;65200;49.500;8.654;2023-03-01T04:20:39;101334.97;;;-0.73;69.76
76378;BME280;65200;49.500;8.654;2023-03-01T04:23:07;101334.19;;;-0.61;68.63
76378;BME280;65200;49.500;8.654;2023-03-01T04:25:39;101331.47;;;-0.60;69.01
76378;BME280;65200;49.500;8.654;2023-03-01T04:28:08;101329.50;;;-0.56;68.79
76378;BME280;65200;49.500;8.654;2023-03-01T04:30:35;101332.13;;;-0.56;68.57
76378;BME280;65200;49.500;8.654;2023-03-01T04:33:02;101334.09;;;-0.60;68.71
76378;BME280;65200;49.500;8.654;2023-03-01T04:35:30;101336.63;;;-0.58;68.49
76378;BME280;65200;49.500;8.654;2023-03-01T04:37:57;101336.44;;;-0.55;68.33
76378;BME280;65200;49.500;8.654;2023-03-01T04:40:23;101340.69;;;-0.53;67.96
76378;BME280;65200;49.500;8.654;2023-03-01T04:42:50;101350.81;;;-0.47;67.64
76378;BME280;65200;49.500;8.654;2023-03-01T04:45:18;101350.72;;;-0.45;67.68
76378;BME280;65200;49.500;8.654;2023-03-01T04:47:45;101347.44;;;-0.49;68.15
76378;BME280;65200;49.500;8.654;2023-03-01T04:50:14;101347.38;;;-0.47;68.19
76378;BME280;65200;49.500;8.654;2023-03-01T04:52:41;101350.16;;;-0.50;68.14
76378;BME280;65200;49.500;8.654;2023-03-01T04:55:08;101345.56;;;-0.47;67.55
76378;BME280;65200;49.500;8.654;2023-03-01T04:57:35;101345.28;;;-0.56;68.21
76378;BME280;65200;49.500;8.654;2023-03-01T05:00:02;101351.31;;;-0.54;67.93
76378;BME280;65200;49.500;8.654;2023-03-01T05:02:47;101355.53;;;-0.52;68.16
76378;BME280;65200;49.500;8.654;2023-03-01T05:05:21;101350.25;;;-0.52;67.71
76378;BME280;65200;49.500;8.654;2023-03-01T05:07:51;101353.69;;;-0.64;68.91
76378;BME280;65200;49.500;8.654;2023-03-01T05:10:17;101353.88;;;-0.67;68.91
76378;BME280;65200;49.500;8.654;2023-03-01T05:12:43;101357.31;;;-0.66;69.02
76378;BME280;65200;49.500;8.654;2023-03-01T05:15:11;101349.06;;;-0.60;68.29
76378;BME280;65200;49.500;8.654;2023-03-01T05:17:38;101348.97;;;-0.73;68.99
76378;BME280;65200;49.500;8.654;2023-03-01T05:20:07;101344.09;;;-0.79;68.83
76378;BME280;65200;49.500;8.654;2023-03-01T05:22:35;101347.28;;;-0.74;69.07
76378;BME280;65200;49.500;8.654;2023-03-01T05:25:03;101354.41;;;-0.76;69.22
76378;BME280;65200;49.500;8.654;2023-03-01T05:27:30;101345.56;;;-0.75;69.03
76378;BME280;65200;49.500;8.654;2023-03-01T05:29:56;101345.69;;;-0.90;70.26
76378;BME280;65200;49.500;8.654;2023-03-01T05:32:22;101354.91;;;-0.83;69.46
76378;BME280;65200;49.500;8.654;2023-03-01T05:34:49;101360.72;;;-0.78;69.35
76378;BME280;65200;49.500;8.654;2023-03-01T05:37:18;101353.31;;;-0.72;69.57
76378;BME280;65200;49.500;8.654;2023-03-01T05:39:45;101358.94;;;-0.78;69.72
76378;BME280;65200;49.500;8.654;2023-03-01T05:42:11;101354.25;;;-0.87;69.47
76378;BME280;65200;49.500;8.654;2023-03-01T05:44:38;101348.97;;;-0.87;69.48
76378;BME280;65200;49.500;8.654;2023-03-01T05:47:04;101350.09;;;-0.91;70.23
76378;BME280;65200;49.500;8.654;2023-03-01T05:49:31;101348.69;;;-0.96;70.42
76378;BME280;65200;49.500;8.654;2023-03-01T05:51:58;101355.25;;;-0.89;70.01
76378;BME280;65200;49.500;8.654;2023-03-01T05:54:25;101350.47;;;-0.97;70.43
76378;BME280;65200;49.500;8.654;2023-03-01T05:56:52;101350.75;;;-1.01;70.29
76378;BME280;65200;49.500;8.654;2023-03-01T05:59:18;101357.69;;;-1.00;70.41
76378;BME280;65200;49.500;8.654;2023-03-01T06:01:45;101355.63;;;-0.95;70.59
76378;BME280;65200;49.500;8.654;2023-03-01T06:04:11;101346.25;;;-0.99;70.50
76378;BME280;65200;49.500;8.654;2023-03-01T06:06:37;101351.91;;;-0.91;69.95
76378;BME280;65200;49.500;8.654;2023-03-01T06:09:04;101348.22;;;-0.89;69.75
76378;BME280;65200;49.500;8.654;2023-03-01T06:11:35;101353.00;;;-0.95;70.35
76378;BME280;65200;49.500;8.654;2023-03-01T06:14:01;101347.47;;;-1.05;70.71
76378;BME280;65200;49.500;8.654;2023-03-01T06:16:28;101354.50;;;-1.05;70.87
76378;BME280;65200;49.500;8.654;2023-03-01T06:18:54;101346.13;;;-1.12;71.08
76378;BME280;65200;49.500;8.654;2023-03-01T06:21:21;101346.59;;;-1.05;70.88
76378;BME280;65200;49.500;8.654;2023-03-01T06:23:47;101346.03;;;-1.10;70.81
76378;BME280;65200;49.500;8.654;2023-03-01T06:26:14;101350.38;;;-1.09;70.91
76378;BME280;65200;49.500;8.654;2023-03-01T06:28:41;101352.16;;;-1.10;71.02
76378;BME280;65200;49.500;8.654;2023-03-01T06:31:11;101350.84;;;-1.03;70.19
76378;BME280;65200;49.500;8.654;2023-03-01T06:33:38;101354.88;;;-0.97;70.23
76378;BME280;65200;49.500;8.654;2023-03-01T06:36:05;101344.44;;;-0.99;70.70
76378;BME280;65200;49.500;8.654;2023-03-01T06:38:31;101344.25;;;-0.96;70.56
76378;BME280;65200;49.500;8.654;2023-03-01T06:40:57;101345.22;;;-0.97;70.61
76378;BME280;65200;49.500;8.654;2023-03-01T06:43:24;101348.03;;;-0.86;70.26
76378;BME280;65200;49.500;8.654;2023-03-01T06:45:52;101343.53;;;-0.98;72.11
76378;BME280;65200;49.500;8.654;2023-03-01T06:48:18;101333.69;;;-0.94;71.68
76378;BME280;65200;49.500;8.654;2023-03-01T06:50:45;101340.88;;;-0.84;71.54
76378;BME280;65200;49.500;8.654;2023-03-01T06:53:11;101334.97;;;-0.87;70.90
76378;BME280;65200;49.500;8.654;2023-03-01T06:55:37;101341.25;;;-0.76;70.43
76378;BME280;65200;49.500;8.654;2023-03-01T06:58:04;101343.13;;;-0.78;71.33
76378;BME280;65200;49.500;8.654;2023-03-01T07:00:31;101339.28;;;-0.72;71.02
76378;BME280;65200;49.500;8.654;2023-03-01T07:03:00;101339.97;;;-0.69;70.56
76378;BME280;65200;49.500;8.654;2023-03-01T07:05:28;101335.25;;;-0.78;71.28
76378;BME280;65200;49.500;8.654;2023-03-01T07:07:54;101337.28;;;-0.55;68.96
76378;BME280;65200;49.500;8.654;2023-03-01T07:10:21;101333.06;;;-0.43;69.23
76378;BME280;65200;49.500;8.654;2023-03-01T07:12:48;101328.25;;;-0.37;69.69
76378;BME280;65200;49.500;8.654;2023-03-01T07:15:14;101330.38;;;-0.29;68.88
76378;BME280;65200;49.500;8.654;2023-03-01T07:17:41;101316.09;;;-0.25;69.08
76378;BME280;65200;49.500;8.654;2023-03-01T07:20:11;101326.50;;;-0.24;69.18
76378;BME280;65200;49.500;8.654;2023-03-01T07:22:39;101324.44;;;-0.19;68.15
76378;BME280;65200;49.500;8.654;2023-03-01T07:25:06;101321.03;;;-0.07;67.98
76378;BME280;65200;49.500;8.654;2023-03-01T07:27:33;101326.28;;;-0.07;68.25
76378;BME280;65200;49.500;8.654;2023-03-01T07:29:59;101316.19;;;0.00;68.13
76378;BME280;65200;49.500;8.654;2023-03-01T07:32:26;101317.16;;;0.12;67.20
76378;BME280;65200;49.500;8.654;2023-03-01T07:34:52;101314.53;;;0.12;67.20
76378;BME280;65200;49.500;8.654;2023-03-01T07:37:20;101308.56;;;0.22;66.89
76378;BME280;65200;49.500;8.654;2023-03-01T07:39:46;101307.91;;;0.19;68.69
76378;BME280;65200;49.500;8.654;2023-03-01T07:42:13;101306.16;;;0.32;67.03
76378;BME280;65200;49.500;8.654;2023-03-01T07:44:40;101307.53;;;0.37;66.81
76378;BME280;65200;49.500;8.654;2023-03-01T07:47:06;101309.66;;;0.45;64.99
76378;BME280;65200;49.500;8.654;2023-03-01T07:49:33;101312.72;;;0.51;66.45
76378;BME280;65200;49.500;8.654;2023-03-01T07:52:00;101306.94;;;0.59;66.25
76378;BME280;65200;49.500;8.654;2023-03-01T07:54:27;101299.88;;;0.72;64.99
76378;BME280;65200;49.500;8.654;2023-03-01T07:56:54;101300.06;;;0.69;65.48
76378;BME280;65200;49.500;8.654;2023-03-01T07:59:22;101296.50;;;0.82;65.01
76378;BME280;65200;49.500;8.654;2023-03-01T08:01:48;101295.75;;;0.93;64.10
76378;BME280;65200;49.500;8.654;2023-03-01T08:04:15;101296.28;;;0.98;64.63
76378;BME280;65200;49.500;8.654;2023-03-01T08:06:41;101288.88;;;1.03;63.85
76378;BME280;65200;49.500;8.654;2023-03-01T08:09:08;101291.19;;;1.07;64.63
76378;BME280;65200;49.500;8.654;2023-03-01T08:11:35;101292.03;;;1.20;63.07
76378;BME280;65200;49.500;8.654;2023-03-01T08:14:02;101280.19;;;1.26;64.07
76378;BME280;65200;49.500;8.654;2023-03-01T08:16:29;101285.56;;;1.37;63.19
76378;BME280;65200;49.500;8.654;2023-03-01T08:18:55;101286.66;;;1.58;62.14
76378;BME280;65200;49.500;8.654;2023-03-01T08:21:25;101276.50;;;1.65;61.97
76378;BME280;65200;49.500;8.654;2023-03-01T08:23:52;101277.63;;;1.73;61.74
76378;BME280;65200;49.500;8.654;2023-03-01T08:26:20;101280.56;;;1.81;60.59
76378;BME280;65200;49.500;8.654;2023-03-01T08:28:49;101278.63;;;2.07;58.69
76378;BME280;65200;49.500;8.654;2023-03-01T08:31:16;101281.16;;;2.08;60.75
76378;BME280;65200;49.500;8.654;2023-03-01T08:33:43;101263.38;;;2.10;60.00
76378;BME280;65200;49.500;8.654;2023-03-01T08:36:09;101270.41;;;2.22;59.26
76378;BME280;65200;49.500;8.654;2023-03-01T08:38:36;101278.88;;;2.38;59.28
76378;BME280;65200;49.500;8.654;2023-03-01T08:41:03;101269.84;;;2.41;58.99
76378;BME280;65200;49.500;8.654;2023-03-01T08:43:30;101270.72;;;2.52;57.62
76378;BME280;65200;49.500;8.654;2023-03-01T08:45:58;101267.75;;;2.68;57.01
76378;BME280;65200;49.500;8.654;2023-03-01T08:48:24;101263.22;;;2.81;56.63
76378;BME280;65200;49.500;8.654;2023-03-01T08:50:51;101261.88;;;2.87;55.97
76378;BME280;65200;49.500;8.654;2023-03-01T08:53:17;101256.69;;;2.96;56.30
76378;BME280;65200;49.500;8.654;2023-03-01T08:55:44;101255.38;;;3.02;55.24
76378;BME280;65200;49.500;8.654;2023-03-01T08:58:10;101248.88;;;3.17;55.99
76378;BME280;65200;49.500;8.654;2023-03-01T09:00:37;101250.56;;;3.18;56.33
76378;BME280;65200;49.500;8.654;2023-03-01T09:03:04;101248.41;;;3.23;56.28
76378;BME280;65200;49.500;8.654;2023-03-01T09:05:31;101245.38;;;3.38;55.47
76378;BME280;65200;49.500;8.654;2023-03-01T09:07:58;101242.72;;;3.38;53.66
76378;BME280;65200;49.500;8.654;2023-03-01T09:10:24;101241.88;;;3.38;55.04
76378;BME280;65200;49.500;8.654;2023-03-01T09:12:51;101237.75;;;3.56;54.75
76378;BME280;65200;49.500;8.654;2023-03-01T09:15:17;101244.22;;;3.63;54.51
76378;BME280;65200;49.500;8.654;2023-03-01T09:17:43;101236.22;;;3.85;55.43
76378;BME280;65200;49.500;8.654;2023-03-01T09:20:11;101237.69;;;3.78;54.32
76378;BME280;65200;49.500;8.654;2023-03-01T09:22:38;101240.41;;;3.87;55.02
76378;BME280;65200;49.500;8.654;2023-03-01T09:25:05;101235.22;;;3.86;55.35
76378;BME280;65200;49.500;8.654;2023-03-01T09:27:32;101232.53;;;3.97;54.34
76378;BME280;65200;49.500;8.654;2023-03-01T09:29:58;101227.34;;;3.95;54.79
76378;BME280;65200;49.500;8.654;2023-03-01T09:32:25;101228.34;;;4.15;53.28
76378;BME280;65200;49.500;8.654;2023-03-01T09:34:51;101223.44;;;4.31;53.00
76378;BME280;65200;49.500;8.654;2023-03-01T09:37:31;101225.91;;;4.44;52.52
76378;BME280;65200;49.500;8.654;2023-03-01T09:39:58;101218.72;;;4.35;52.47
76378;BME280;65200;49.500;8.654;2023-03-01T09:42:25;101214.00;;;4.38;51.97
76378;BME280;65200;49.500;8.654;2023-03-01T09:44:54;101205.28;;;4.47;53.31
76378;BME280;65200;49.500;8.654;2023-03-01T09:47:26;101220.72;;;4.63;51.82
76378;BME280;65200;49.500;8.654;2023-03-01T09:50:00;101216.91;;;4.56;51.13
76378;BME280;65200;49.500;8.654;2023-03-01T09:52:34;101221.22;;;4.77;52.19
76378;BME280;65200;49.500;8.654;2023-03-01T09:55:09;101214.53;;;4.83;51.53
76378;BME280;65200;49.500;8.654;2023-03-01T09:57:43;101216.38;;;4.92;50.56
76378;BME280;65200;49.500;8.654;2023-03-01T10:00:26;101213.16;;;4.88;52.46
76378;BME280;65200;49.500;8.654;2023-03-01T10:03:00;101207.84;;;4.88;52.30
76378;BME280;65200;49.500;8.654;2023-03-01T10:05:34;101205.44;;;5.15;51.55
76378;BME280;65200;49.500;8.654;2023-03-01T10:08:19;101206.97;;;5.18;52.27
76378;BME280;65200;49.500;8.654;2023-03-01T10:10:51;101206.03;;;5.28;50.13
76378;BME280;65200;49.500;8.654;2023-03-01T10:13:19;101203.75;;;5.14;50.66
76378;BME280;65200;49.500;8.654;2023-03-01T10:15:50;101197.09;;;5.29;51.18
76378;BME280;65200;49.500;8.654;2023-03-01T10:18:22;101201.97;;;5.24;49.63
76378;BME280;65200;49.500;8.654;2023-03-01T10:20:53;101193.22;;;5.43;48.66
76378;BME280;65200;49.500;8.654;2023-03-01T10:23:22;101200.50;;;5.60;48.52
76378;BME280;65200;49.500;8.654;2023-03-01T10:26:00;101190.44;;;5.73;47.97
76378;BME280;65200;49.500;8.654;2023-03-01T10:28:31;101184.03;;;5.85;47.83
76378;BME280;65200;49.500;8.654;2023-03-01T10:31:02;101179.22;;;5.79;51.68
76378;BME280;65200;49.500;8.654;2023-03-01T10:33:32;101174.09;;;6.06;50.55
76378;BME280;65200;49.500;8.654;2023-03-01T10:35:59;101179.41;;;6.16;47.95
76378;BME280;65200;49.500;8.654;2023-03-01T10:38:30;101168.34;;;6.11;50.15
76378;BME280;65200;49.500;8.654;2023-03-01T10:40:58;101156.97;;;6.18;48.58
76378;BME280;65200;49.500;8.654;2023-03-01T10:43:30;101151.91;;;6.25;47.84
76378;BME280;65200;49.500;8.654;2023-03-01T10:45:58;101144.97;;;6.51;48.51
76378;BME280;65200;49.500;8.654;2023-03-01T10:48:26;101152.63;;;6.17;48.59
76378;BME280;65200;49.500;8.654;2023-03-01T10:51:06;101149.38;;;6.33;48.28
76378;BME280;65200;49.500;8.654;2023-03-01T10:53:37;101147.25;;;6.36;46.81
76378;BME280;65200;49.500;8.654;2023-03-01T10:56:06;101144.19;;;6.31;47.39
76378;BME280;65200;49.500;8.654;2023-03-01T10:58:35;101139.09;;;6.47;50.32
76378;BME280;65200;49.500;8.654;2023-03-01T11:01:03;101139.59;;;6.70;46.92
76378;BME280;65200;49.500;8.654;2023-03-01T11:03:32;101128.09;;;6.69;48.62
76378;BME280;65200;49.500;8.654;2023-03-01T11:06:03;101121.47;;;6.83;47.75
76378;BME280;65200;49.500;8.654;2023-03-01T11:08:36;101112.31;;;6.85;45.53
76378;BME280;65200;49.500;8.654;2023-03-01T11:11:14;101101.59;;;6.95;47.00
76378;BME280;65200;49.500;8.654;2023-03-01T11:13:53;101104.91;;;7.07;48.44
76378;BME280;65200;49.500;8.654;2023-03-01T11:16:29;101108.13;;;7.28;48.08
76378;BME280;65200;49.500;8.654;2023-03-01T11:19:04;101114.00;;;7.31;46.54
76378;BME280;65200;49.500;8.654;2023-03-01T11:21:43;101107.19;;;7.19;49.40
76378;BME280;65200;49.500;8.654;2023-03-01T11:24:14;101109.09;;;7.09;48.75
76378;BME280;65200;49.500;8.654;2023-03-01T11:26:44;101101.78;;;7.11;46.30
76378;BME280;65200;49.500;8.654;2023-03-01T11:29:17;101091.13;;;7.29;45.56
76378;BME280;65200;49.500;8.654;2023-03-01T11:31:47;101086.00;;;7.45;45.11
76378;BME280;65200;49.500;8.654;2023-03-01T11:34:19;101070.72;;;7.55;44.42
76378;BME280;65200;49.500;8.654;2023-03-01T11:36:50;101071.19;;;7.50;43.84
76378;BME280;65200;49.500;8.654;2023-03-01T11:39:24;101075.00;;;7.65;43.07
76378;BME280;65200;49.500;8.654;2023-03-01T11:42:02;101066.63;;;7.86;43.13
76378;BME280;65200;49.500;8.654;2023-03-01T11:44:34;101055.66;;;7.89;47.56
76378;BME280;65200;49.500;8.654;2023-03-01T11:47:20;101057.66;;;7.87;47.70
76378;BME280;65200;49.500;8.654;2023-03-01T11:50:11;101054.84;;;7.88;46.94
76378;BME280;65200;49.500;8.654;2023-03-01T11:52:47;101055.63;;;7.63;46.51
76378;BME280;65200;49.500;8.654;2023-03-01T11:55:27;101050.69;;;7.51;47.08
76378;BME280;65200;49.500;8.654;2023-03-01T11:58:12;101056.94;;;7.42;48.03
76378;BME280;65200;49.500;8.654;2023-03-01T12:00:59;101055.88;;;7.35;48.36
76378;BME280;65200;49.500;8.654;2023-03-01T12:03:34;101045.56;;;7.22;48.13
76378;BME280;65200;49.500;8.654;2023-03-01T12:06:28;101032.41;;;7.21;48.08
76378;BME280;65200;49.500;8.654;2023-03-01T12:09:09;101026.25;;;7.20;48.35
76378;BME280;65200;49.500;8.654;2023-03-01T12:12:00;101035.22;;;7.19;49.77
76378;BME280;65200;49.500;8.654;2023-03-01T12:14:52;101022.19;;;7.34;48.68
76378;BME280;65200;49.500;8.654;2023-03-01T12:17:40;101015.78;;;7.62;48.06
76378;BME280;65200;49.500;8.654;2023-03-01T12:20:21;100995.16;;;7.46;45.85
76378;BME280;65200;49.500;8.654;2023-03-01T12:23:17;101003.22;;;7.54;48.68
76378;BME280;65200;49.500;8.654;2023-03-01T12:25:54;101002.91;;;7.57;47.41
76378;BME280;65200;49.500;8.654;2023-03-01T12:28:39;101000.59;;;7.62;48.11
76378;BME280;65200;49.500;8.654;2023-03-01T12:31:36;100996.34;;;7.77;47.43
76378;BME280;65200;49.500;8.654;2023-03-01T12:34:20;100987.91;;;7.82;46.93
76378;BME280;65200;49.500;8.654;2023-03-01T12:37:00;100982.13;;;7.94;48.22
76378;BME280;65200;49.500;8.654;2023-03-01T12:39:41;100985.16;;;7.99;46.61
76378;BME280;65200;49.500;8.654;2023-03-01T12:42:26;100985.94;;;8.17;45.58
76378;BME280;65200;49.500;8.654;2023-03-01T12:45:26;100975.56;;;8.14;46.54
76378;BME280;65200;49.500;8.654;2023-03-01T12:48:08;100956.72;;;8.16;45.25
76378;BME280;65200;49.500;8.654;2023-03-01T12:50:41;100959.13;;;8.27;49.50
76378;BME280;65200;49.500;8.654;2023-03-01T12:53:20;100949.88;;;8.21;45.88
76378;BME280;65200;49.500;8.654;2023-03-01T12:55:48;100941.66;;;8.07;45.94
76378;BME280;65200;49.500;8.654;2023-03-01T12:58:24;100935.22;;;8.17;47.61
76378;BME280;65200;49.500;8.654;2023-03-01T13:01:04;100931.75;;;8.25;45.11
76378;BME280;65200;49.500;8.654;2023-03-01T13:03:52;100938.31;;;8.39;44.85
76378;BME280;65200;49.500;8.654;2023-03-01T13:06:28;100939.34;;;8.46;46.48
76378;BME280;65200;49.500;8.654;2023-03-01T13:09:05;100934.63;;;8.31;46.39